sensor_id;sensor_type;location;lat;lon;timestamp;pressure;altitude;pressure_sealevel;temperature;humidity
28306;BME280;7516;43.570;1.448;2023-09-19T00:00:57;100027.19;;;18.77;96.67
28306;BME280;7516;43.570;1.448;2023-09-19T00:03:26;100028.81;;;18.78;97.18
28306;BME280;7516;43.570;1.448;2023-09-19T00:05:54;100038.22;;;18.74;97.40
28306;BME280;7516;43.570;1.448;2023-09-19T00:08:22;100029.09;;;18.70;97.99
28306;BME280;7516;43.570;1.448;2023-09-19T00:10:49;100024.78;;;18.69;98.45
28306;BME280;7516;43.570;1.448;2023-09-19T00:13:17;100024.03;;;18.62;98.06
28306;BME280;7516;43.570;1.448;2023-09-19T00:15:46;100029.34;;;18.62;98.96
28306;BME280;7516;43.570;1.448;2023-09-19T00:18:15;100031.81;;;18.57;98.77
28306;BME280;7516;43.570;1.448;2023-09-19T00:20:44;100028.56;;;18.55;99.11
28306;BME280;7516;43.570;1.448;2023-09-19T00:23:13;100023.25;;;18.55;99.13
28306;BME280;7516;43.570;1.448;2023-09-19T00:25:41;100024.50;;;18.53;99.51
28306;BME280;7516;43.570;1.448;2023-09-19T00:28:08;100026.97;;;18.48;99.76
28306;BME280;7516;43.570;1.448;2023-09-19T00:30:36;100020.84;;;18.47;99.53
28306;BME280;7516;43.570;1.448;2023-09-19T00:33:05;100020.06;;;18.47;100.00
28306;BME280;7516;43.570;1.448;2023-09-19T00:35:33;100016.34;;;18.48;100.00
28306;BME280;7516;43.570;1.448;2023-09-19T00:38:04;100017.00;;;18.43;100.00
28306;BME280;7516;43.570;1.448;2023-09-19T00:40:32;100020.53;;;18.37;100.00
28306;BME280;7516;43.570;1.448;2023-09-19T00:43:01;100017.88;;;18.37;100.00
28306;BME280;7516;43.570;1.448;2023-09-19T00:45:28;100021.56;;;18.36;100.00
28306;BME280;7516;43.570;1.448;2023-09-19T00:47:56;100016.25;;;18.36;100.00
28306;BME280;7516;43.570;1.448;2023-09-19T00:50:26;100028.91;;;18.34;100.00
28306;BME280;7516;43.570;1.448;2023-09-19T00:52:55;100027.88;;;18.35;100.00
28306;BME280;7516;43.570;1.448;2023-09-19T00:55:25;100032.16;;;18.36;100.00
28306;BME280;7516;43.570;1.448;2023-09-19T00:57:56;100027.50;;;18.31;100.00
28306;BME280;7516;43.570;1.448;2023-09-19T01:00:25;100020.94;;;18.34;100.00
28306;BME280;7516;43.570;1.448;2023-09-19T01:02:52;100023.00;;;18.32;100.00
28306;BME280;7516;43.570;1.448;2023-09-19T01:05:22;100023.44;;;18.29;100.00
28306;BME280;7516;43.570;1.448;2023-09-19T01:07:50;100023.00;;;18.32;100.00
28306;BME280;7516;43.570;1.448;2023-09-19T01:10:20;100024.63;;;18.33;100.00
28306;BME280;7516;43.570;1.448;2023-09-19T01:13:08;100020.13;;;18.33;100.00
28306;BME280;7516;43.570;1.448;2023-09-19T01:15:43;100016.50;;;18.28;100.00
28306;BME280;7516;43.570;1.448;2023-09-19T01:18:21;100019.31;;;18.33;100.00
28306;BME280;7516;43.570;1.448;2023-09-19T01:21:00;100022.59;;;18.35;100.00
28306;BME280;7516;43.570;1.448;2023-09-19T01:23:48;100024.63;;;18.33;100.00
28306;BME280;7516;43.570;1.448;2023-09-19T01:26:30;100026.69;;;18.31;100.00
28306;BME280;7516;43.570;1.448;2023-09-19T01:29:23;100022.63;;;18.28;100.00
28306;BME280;7516;43.570;1.448;2023-09-19T01:32:03;100021.41;;;18.24;100.00
28306;BME280;7516;43.570;1.448;2023-09-19T01:34:44;100015.13;;;18.19;100.00
28306;BME280;7516;43.570;1.448;2023-09-19T01:37:14;100020.25;;;18.20;100.00
28306;BME280;7516;43.570;1.448;2023-09-19T01:39:46;100015.72;;;18.21;100.00
28306;BME280;7516;43.570;1.448;2023-09-19T01:42:21;100011.47;;;18.20;100.00
28306;BME280;7516;43.570;1.448;2023-09-19T01:44:57;100016.16;;;18.18;100.00
28306;BME280;7516;43.570;1.448;2023-09-19T01:47:33;100015.97;;;18.19;100.00
28306;BME280;7516;43.570;1.448;2023-09-19T01:50:11;100010.84;;;18.18;100.00
28306;BME280;7516;43.570;1.448;2023-09-19T01:52:45;100012.28;;;18.14;100.00
28306;BME280;7516;43.570;1.448;2023-09-19T01:55:15;100005.81;;;18.10;100.00
28306;BME280;7516;43.570;1.448;2023-09-19T01:57:51;100005.63;;;18.04;100.00
28306;BME280;7516;43.570;1.448;2023-09-19T02:00:23;100012.13;;;18.09;100.00
28306;BME280;7516;43.570;1.448;2023-09-19T02:02:53;100005.41;;;18.06;100.00
28306;BME280;7516;43.570;1.448;2023-09-19T02:05:25;99999.09;;;18.07;100.00
28306;BME280;7516;43.570;1.448;2023-09-19T02:07:54;100008.06;;;18.06;100.00
28306;BME280;7516;43.570;1.448;2023-09-19T02:10:22;100000.75;;;18.01;100.00
28306;BME280;7516;43.570;1.448;2023-09-19T02:12:50;100004.00;;;18.03;100.00
28306;BME280;7516;43.570;1.448;2023-09-19T02:15:18;99997.50;;;17.99;100.00
28306;BME280;7516;43.570;1.448;2023-09-19T02:17:45;100004.00;;;18.03;100.00
28306;BME280;7516;43.570;1.448;2023-09-19T02:20:14;100001.34;;;18.03;100.00
28306;BME280;7516;43.570;1.448;2023-09-19T02:22:43;99997.09;;;18.02;100.00
28306;BME280;7516;43.570;1.448;2023-09-19T02:25:11;99996.47;;;18.00;100.00
28306;BME280;7516;43.570;1.448;2023-09-19T02:27:39;99994.84;;;17.99;100.00
28306;BME280;7516;43.570;1.448;2023-09-19T02:30:08;99995.06;;;17.98;100.00
28306;BME280;7516;43.570;1.448;2023-09-19T02:32:36;99995.47;;;17.95;100.00
28306;BME280;7516;43.570;1.448;2023-09-19T02:35:06;99985.13;;;17.87;100.00
28306;BME280;7516;43.570;1.448;2023-09-19T02:37:38;99990.22;;;17.88;100.00
28306;BME280;7516;43.570;1.448;2023-09-19T02:40:07;99982.06;;;17.90;100.00
28306;BME280;7516;43.570;1.448;2023-09-19T02:42:45;99974.91;;;17.90;100.00
28306;BME280;7516;43.570;1.448;2023-09-19T02:45:16;99973.94;;;17.85;100.00
28306;BME280;7516;43.570;1.448;2023-09-19T02:47:44;99972.31;;;17.84;100.00
28306;BME280;7516;43.570;1.448;2023-09-19T02:50:13;99973.94;;;17.85;100.00
28306;BME280;7516;43.570;1.448;2023-09-19T02:52:43;99974.75;;;17.85;100.00
28306;BME280;7516;43.570;1.448;2023-09-19T02:55:11;99964.13;;;17.85;100.00
28306;BME280;7516;43.570;1.448;2023-09-19T02:57:40;99960.69;;;17.85;100.00
28306;BME280;7516;43.570;1.448;2023-09-19T03:00:10;99955.56;;;17.83;100.00
28306;BME280;7516;43.570;1.448;2023-09-19T03:02:38;99959.47;;;17.81;100.00
28306;BME280;7516;43.570;1.448;2023-09-19T03:05:08;99963.34;;;17.78;100.00
28306;BME280;7516;43.570;1.448;2023-09-19T03:07:37;99952.56;;;17.73;100.00
28306;BME280;7516;43.570;1.448;2023-09-19T03:10:07;99945.63;;;17.72;100.00
28306;BME280;7516;43.570;1.448;2023-09-19T03:12:35;99958.91;;;17.72;100.00
28306;BME280;7516;43.570;1.448;2023-09-19T03:15:03;99958.69;;;17.74;100.00
28306;BME280;7516;43.570;1.448;2023-09-19T03:17:31;99963.19;;;17.73;100.00
28306;BME280;7516;43.570;1.448;2023-09-19T03:19:59;99959.91;;;17.71;100.00
28306;BME280;7516;43.570;1.448;2023-09-19T03:22:27;99958.94;;;17.65;100.00
28306;BME280;7516;43.570;1.448;2023-09-19T03:24:55;99967.06;;;17.71;100.00
28306;BME280;7516;43.570;1.448;2023-09-19T03:27:24;99967.50;;;17.67;100.00
28306;BME280;7516;43.570;1.448;2023-09-19T03:29:51;99966.88;;;17.65;100.00
28306;BME280;7516;43.570;1.448;2023-09-19T03:32:19;99956.50;;;17.64;100.00
28306;BME280;7516;43.570;1.448;2023-09-19T03:34:47;99967.69;;;17.59;100.00
28306;BME280;7516;43.570;1.448;2023-09-19T03:37:14;99960.53;;;17.60;100.00
28306;BME280;7516;43.570;1.448;2023-09-19T03:39:42;99964.25;;;17.59;100.00
28306;BME280;7516;43.570;1.448;2023-09-19T03:42:09;99961.59;;;17.59;100.00
28306;BME280;7516;43.570;1.448;2023-09-19T03:44:38;99959.34;;;17.62;100.00
28306;BME280;7516;43.570;1.448;2023-09-19T03:47:06;99960.31;;;17.68;100.00
28306;BME280;7516;43.570;1.448;2023-09-19T03:49:33;99956.06;;;17.67;100.00
28306;BME280;7516;43.570;1.448;2023-09-19T03:52:01;99962.34;;;17.73;100.00
28306;BME280;7516;43.570;1.448;2023-09-19T03:54:29;99956.84;;;17.74;100.00
28306;BME280;7516;43.570;1.448;2023-09-19T03:56:56;99967.06;;;17.71;100.00
28306;BME280;7516;43.570;1.448;2023-09-19T03:59:23;99956.88;;;17.61;100.00
28306;BME280;7516;43.570;1.448;2023-09-19T04:01:52;99962.19;;;17.61;100.00
28306;BME280;7516;43.570;1.448;2023-09-19T04:04:23;99945.47;;;17.60;100.00
28306;BME280;7516;43.570;1.448;2023-09-19T04:06:51;99946.28;;;17.61;100.00
28306;BME280;7516;43.570;1.448;2023-09-19T04:09:19;99948.75;;;17.56;100.00
28306;BME280;7516;43.570;1.448;2023-09-19T04:11:46;99944.69;;;17.53;100.00
28306;BME280;7516;43.570;1.448;2023-09-19T04:14:16;99949.00;;;17.48;100.00
28306;BME280;7516;43.570;1.448;2023-09-19T04:16:43;99952.88;;;17.45;100.00
28306;BME280;7516;43.570;1.448;2023-09-19T04:19:12;99949.41;;;17.45;100.00
28306;BME280;7516;43.570;1.448;2023-09-19T04:21:40;99946.38;;;17.41;100.00
28306;BME280;7516;43.570;1.448;2023-09-19T04:24:09;99946.59;;;17.40;100.00
28306;BME280;7516;43.570;1.448;2023-09-19T04:26:36;99946.59;;;17.40;100.00
28306;BME280;7516;43.570;1.448;2023-09-19T04:29:04;99948.03;;;17.36;100.00
28306;BME280;7516;43.570;1.448;2023-09-19T04:31:32;99945.56;;;17.34;100.00
28306;BME280;7516;43.570;1.448;2023-09-19T04:33:59;99944.38;;;17.30;100.00
28306;BME280;7516;43.570;1.448;2023-09-19T04:36:32;99946.84;;;17.32;100.00
28306;BME280;7516;43.570;1.448;2023-09-19T04:38:59;99951.31;;;17.31;100.00
28306;BME280;7516;43.570;1.448;2023-09-19T04:41:28;99942.34;;;17.25;100.00
28306;BME280;7516;43.570;1.448;2023-09-19T04:43:56;99943.38;;;17.24;100.00
28306;BME280;7516;43.570;1.448;2023-09-19T04:46:24;99939.53;;;17.20;100.00
28306;BME280;7516;43.570;1.448;2023-09-19T04:48:51;99941.97;;;17.22;100.00
28306;BME280;7516;43.570;1.448;2023-09-19T04:51:19;99946.06;;;17.18;100.00
28306;BME280;7516;43.570;1.448;2023-09-19T04:53:49;99942.38;;;17.19;100.00
28306;BME280;7516;43.570;1.448;2023-09-19T04:56:16;99953.19;;;17.17;100.00
28306;BME280;7516;43.570;1.448;2023-09-19T04:58:43;99945.22;;;17.17;100.00
28306;BME280;7516;43.570;1.448;2023-09-19T05:01:11;99941.19;;;17.15;100.00
28306;BME280;7516;43.570;1.448;2023-09-19T05:03:41;99940.38;;;17.14;100.00
28306;BME280;7516;43.570;1.448;2023-09-19T05:06:09;99946.47;;;17.08;100.00
28306;BME280;7516;43.570;1.448;2023-09-19T05:08:37;99940.38;;;17.08;100.00
28306;BME280;7516;43.570;1.448;2023-09-19T05:11:06;99952.19;;;17.12;100.00
28306;BME280;7516;43.570;1.448;2023-09-19T05:13:35;99944.44;;;17.10;100.00
28306;BME280;7516;43.570;1.448;2023-09-19T05:16:02;99952.41;;;17.10;100.00
28306;BME280;7516;43.570;1.448;2023-09-19T05:18:30;99956.06;;;17.09;100.00
28306;BME280;7516;43.570;1.448;2023-09-19T05:20:57;99958.72;;;17.09;100.00
28306;BME280;7516;43.570;1.448;2023-09-19T05:23:25;99968.94;;;17.06;100.00
28306;BME280;7516;43.570;1.448;2023-09-19T05:25:53;99967.69;;;17.02;100.00
28306;BME280;7516;43.570;1.448;2023-09-19T05:28:24;99962.81;;;16.99;100.00
28306;BME280;7516;43.570;1.448;2023-09-19T05:30:51;99967.28;;;16.98;100.00
28306;BME280;7516;43.570;1.448;2023-09-19T05:33:19;99975.66;;;16.95;100.00
28306;BME280;7516;43.570;1.448;2023-09-19T05:35:49;99973.84;;;16.96;100.00
28306;BME280;7516;43.570;1.448;2023-09-19T05:38:16;99977.28;;;16.96;100.00
28306;BME280;7516;43.570;1.448;2023-09-19T05:40:45;99975.44;;;16.90;100.00
28306;BME280;7516;43.570;1.448;2023-09-19T05:43:13;99969.34;;;16.89;100.00
28306;BME280;7516;43.570;1.448;2023-09-19T05:45:42;99978.91;;;16.90;100.00
28306;BME280;7516;43.570;1.448;2023-09-19T05:48:12;99980.16;;;16.88;100.00
28306;BME280;7516;43.570;1.448;2023-09-19T05:50:42;99986.66;;;16.85;100.00
28306;BME280;7516;43.570;1.448;2023-09-19T05:53:12;99990.75;;;16.88;100.00
28306;BME280;7516;43.570;1.448;2023-09-19T05:55:40;99997.66;;;16.89;100.00
28306;BME280;7516;43.570;1.448;2023-09-19T05:58:08;99993.97;;;16.90;100.00
28306;BME280;7516;43.570;1.448;2023-09-19T06:00:36;100000.91;;;16.91;100.00
28306;BME280;7516;43.570;1.448;2023-09-19T06:03:05;100002.94;;;16.89;100.00
28306;BME280;7516;43.570;1.448;2023-09-19T06:05:33;100003.56;;;16.91;100.00
28306;BME280;7516;43.570;1.448;2023-09-19T06:08:00;100000.28;;;16.89;100.00
28306;BME280;7516;43.570;1.448;2023-09-19T06:10:33;100006.03;;;16.86;100.00
28306;BME280;7516;43.570;1.448;2023-09-19T06:13:02;100014.56;;;16.88;100.00
28306;BME280;7516;43.570;1.448;2023-09-19T06:15:32;100016.41;;;16.94;100.00
28306;BME280;7516;43.570;1.448;2023-09-19T06:18:02;100004.59;;;16.97;100.00
28306;BME280;7516;43.570;1.448;2023-09-19T06:20:32;100012.31;;;16.98;100.00
28306;BME280;7516;43.570;1.448;2023-09-19T06:23:00;100016.19;;;17.02;100.00
28306;BME280;7516;43.570;1.448;2023-09-19T06:25:28;100014.13;;;17.04;100.00
28306;BME280;7516;43.570;1.448;2023-09-19T06:27:55;100009.66;;;17.05;100.00
28306;BME280;7516;43.570;1.448;2023-09-19T06:30:24;100019.41;;;17.11;100.00
28306;BME280;7516;43.570;1.448;2023-09-19T06:32:56;100014.94;;;17.11;100.00
28306;BME280;7516;43.570;1.448;2023-09-19T06:35:24;100014.09;;;17.17;100.00
28306;BME280;7516;43.570;1.448;2023-09-19T06:37:54;100012.06;;;17.19;100.00
28306;BME280;7516;43.570;1.448;2023-09-19T06:40:23;100013.06;;;17.25;100.00
28306;BME280;7516;43.570;1.448;2023-09-19T06:42:51;100011.22;;;17.25;100.00
28306;BME280;7516;43.570;1.448;2023-09-19T06:45:20;100008.78;;;17.30;100.00
28306;BME280;7516;43.570;1.448;2023-09-19T06:47:49;100009.97;;;17.35;100.00
28306;BME280;7516;43.570;1.448;2023-09-19T06:50:17;100011.19;;;17.39;100.00
28306;BME280;7516;43.570;1.448;2023-09-19T06:52:46;100006.94;;;17.38;100.00
28306;BME280;7516;43.570;1.448;2023-09-19T06:55:18;100005.06;;;17.45;100.00
28306;BME280;7516;43.570;1.448;2023-09-19T06:57:46;100015.06;;;17.49;100.00
28306;BME280;7516;43.570;1.448;2023-09-19T07:00:15;100012.38;;;17.56;100.00
28306;BME280;7516;43.570;1.448;2023-09-19T07:02:44;100009.06;;;17.60;100.00
28306;BME280;7516;43.570;1.448;2023-09-19T07:05:12;100010.31;;;17.64;100.00
28306;BME280;7516;43.570;1.448;2023-09-19T07:07:39;100011.50;;;17.68;100.00
28306;BME280;7516;43.570;1.448;2023-09-19T07:10:07;100011.91;;;17.72;100.00
28306;BME280;7516;43.570;1.448;2023-09-19T07:12:38;100011.50;;;17.75;100.00
28306;BME280;7516;43.570;1.448;2023-09-19T07:15:07;100014.13;;;17.82;100.00
28306;BME280;7516;43.570;1.448;2023-09-19T07:17:35;100001.69;;;17.82;100.00
28306;BME280;7516;43.570;1.448;2023-09-19T07:20:03;100011.06;;;17.85;100.00
28306;BME280;7516;43.570;1.448;2023-09-19T07:22:34;100007.34;;;17.92;100.00
28306;BME280;7516;43.570;1.448;2023-09-19T07:25:02;100005.06;;;17.96;100.00
28306;BME280;7516;43.570;1.448;2023-09-19T07:27:29;100012.38;;;18.00;100.00
28306;BME280;7516;43.570;1.448;2023-09-19T07:29:58;100013.00;;;18.02;100.00
28306;BME280;7516;43.570;1.448;2023-09-19T07:32:26;100008.28;;;18.04;100.00
28306;BME280;7516;43.570;1.448;2023-09-19T07:34:53;100011.31;;;18.08;100.00
28306;BME280;7516;43.570;1.448;2023-09-19T07:37:21;100013.75;;;18.10;100.00
28306;BME280;7516;43.570;1.448;2023-09-19T07:39:51;100015.34;;;18.17;100.00
28306;BME280;7516;43.570;1.448;2023-09-19T07:42:19;100014.28;;;18.25;100.00
28306;BME280;7516;43.570;1.448;2023-09-19T07:44:46;100026.09;;;18.29;100.00
28306;BME280;7516;43.570;1.448;2023-09-19T07:47:21;100014.63;;;18.35;100.00
28306;BME280;7516;43.570;1.448;2023-09-19T07:49:49;100014.19;;;18.38;100.00
28306;BME280;7516;43.570;1.448;2023-09-19T07:52:16;100010.69;;;18.44;100.00
28306;BME280;7516;43.570;1.448;2023-09-19T07:54:43;100012.31;;;18.45;100.00
28306;BME280;7516;43.570;1.448;2023-09-19T07:57:11;100019.41;;;18.51;100.00
28306;BME280;7516;43.570;1.448;2023-09-19T07:59:38;100020.41;;;18.57;100.00
28306;BME280;7516;43.570;1.448;2023-09-19T08:02:08;100019.53;;;18.63;100.00
28306;BME280;7516;43.570;1.448;2023-09-19T08:04:37;100019.28;;;18.71;100.00
28306;BME280;7516;43.570;1.448;2023-09-19T08:07:05;100029.22;;;18.75;100.00
28306;BME280;7516;43.570;1.448;2023-09-19T08:09:35;100034.13;;;18.78;100.00
28306;BME280;7516;43.570;1.448;2023-09-19T08:12:05;100025.06;;;18.86;100.00
28306;BME280;7516;43.570;1.448;2023-09-19T08:14:34;100035.41;;;18.94;100.00
28306;BME280;7516;43.570;1.448;2023-09-19T08:17:01;100033.56;;;18.95;100.00
28306;BME280;7516;43.570;1.448;2023-09-19T08:19:30;100035.50;;;19.06;100.00
28306;BME280;7516;43.570;1.448;2023-09-19T08:21:59;100040.97;;;19.11;100.00
28306;BME280;7516;43.570;1.448;2023-09-19T08:24:27;100036.56;;;19.23;100.00
28306;BME280;7516;43.570;1.448;2023-09-19T08:26:55;100042.72;;;19.42;100.00
28306;BME280;7516;43.570;1.448;2023-09-19T08:29:23;100047.28;;;19.53;99.36
28306;BME280;7516;43.570;1.448;2023-09-19T08:31:54;100041.47;;;19.63;98.46
28306;BME280;7516;43.570;1.448;2023-09-19T08:34:22;100047.44;;;19.76;100.00
28306;BME280;7516;43.570;1.448;2023-09-19T08:36:54;100042.03;;;19.83;98.58
28306;BME280;7516;43.570;1.448;2023-09-19T08:39:24;100047.03;;;19.91;97.23
28306;BME280;7516;43.570;1.448;2023-09-19T08:41:58;100052.88;;;20.00;98.40
28306;BME280;7516;43.570;1.448;2023-09-19T08:44:26;100044.22;;;20.04;98.35
28306;BME280;7516;43.570;1.448;2023-09-19T08:47:00;100045.16;;;20.10;97.71
28306;BME280;7516;43.570;1.448;2023-09-19T08:49:41;100041.09;;;20.07;96.40
28306;BME280;7516;43.570;1.448;2023-09-19T08:52:20;100044.13;;;20.11;97.49
28306;BME280;7516;43.570;1.448;2023-09-19T08:54:52;100047.38;;;20.13;97.21
28306;BME280;7516;43.570;1.448;2023-09-19T08:57:23;100045.88;;;20.17;96.23
28306;BME280;7516;43.570;1.448;2023-09-19T08:59:53;100046.84;;;20.22;95.39
28306;BME280;7516;43.570;1.448;2023-09-19T09:02:23;100048.28;;;20.37;97.37
28306;BME280;7516;43.570;1.448;2023-09-19T09:04:51;100045.28;;;20.45;97.82
28306;BME280;7516;43.570;1.448;2023-09-19T09:07:20;100052.97;;;20.53;97.39
28306;BME280;7516;43.570;1.448;2023-09-19T09:09:50;100052.75;;;20.66;97.92
28306;BME280;7516;43.570;1.448;2023-09-19T09:12:18;100047.09;;;20.74;96.66
28306;BME280;7516;43.570;1.448;2023-09-19T09:14:47;100046.16;;;20.80;97.20
28306;BME280;7516;43.570;1.448;2023-09-19T09:17:16;100047.22;;;20.79;93.14
28306;BME280;7516;43.570;1.448;2023-09-19T09:19:43;100050.34;;;20.88;93.75
28306;BME280;7516;43.570;1.448;2023-09-19T09:22:11;100049.41;;;20.94;94.44
28306;BME280;7516;43.570;1.448;2023-09-19T09:24:54;100045.63;;;21.01;95.11
28306;BME280;7516;43.570;1.448;2023-09-19T09:27:24;100042.94;;;21.01;93.30
28306;BME280;7516;43.570;1.448;2023-09-19T09:29:52;100037.34;;;21.03;91.89
28306;BME280;7516;43.570;1.448;2023-09-19T09:32:23;100034.47;;;21.04;90.42
28306;BME280;7516;43.570;1.448;2023-09-19T09:34:52;100037.59;;;21.13;90.53
28306;BME280;7516;43.570;1.448;2023-09-19T09:37:21;100034.94;;;21.13;88.43
28306;BME280;7516;43.570;1.448;2023-09-19T09:39:54;100026.81;;;21.20;90.22
28306;BME280;7516;43.570;1.448;2023-09-19T09:42:33;100030.44;;;21.25;88.74
28306;BME280;7516;43.570;1.448;2023-09-19T09:45:18;100025.91;;;21.26;89.17
28306;BME280;7516;43.570;1.448;2023-09-19T09:47:55;100024.16;;;21.20;88.22
28306;BME280;7516;43.570;1.448;2023-09-19T09:50:26;100027.06;;;21.30;90.41
28306;BME280;7516;43.570;1.448;2023-09-19T09:52:55;100028.31;;;21.39;91.02
28306;BME280;7516;43.570;1.448;2023-09-19T09:55:59;100021.34;;;21.50;90.64
28306;BME280;7516;43.570;1.448;2023-09-19T09:58:26;100022.81;;;21.57;89.47
28306;BME280;7516;43.570;1.448;2023-09-19T10:00:57;100024.31;;;21.65;87.49
28306;BME280;7516;43.570;1.448;2023-09-19T10:03:35;100026.88;;;21.71;88.69
28306;BME280;7516;43.570;1.448;2023-09-19T10:06:07;100032.09;;;21.66;88.08
28306;BME280;7516;43.570;1.448;2023-09-19T10:09:02;100033.84;;;21.61;88.33
28306;BME280;7516;43.570;1.448;2023-09-19T10:11:41;100026.44;;;21.51;85.83
28306;BME280;7516;43.570;1.448;2023-09-19T10:14:12;100029.78;;;21.58;85.50
28306;BME280;7516;43.570;1.448;2023-09-19T10:16:46;100025.13;;;21.65;85.27
28306;BME280;7516;43.570;1.448;2023-09-19T10:19:21;100027.53;;;21.78;86.23
28306;BME280;7516;43.570;1.448;2023-09-19T10:21:51;100024.38;;;21.82;87.10
28306;BME280;7516;43.570;1.448;2023-09-19T10:24:22;100020.53;;;21.89;85.44
28306;BME280;7516;43.570;1.448;2023-09-19T10:26:54;100027.59;;;21.95;87.01
28306;BME280;7516;43.570;1.448;2023-09-19T10:29:22;100026.78;;;21.95;87.13
28306;BME280;7516;43.570;1.448;2023-09-19T10:31:53;100024.69;;;21.97;86.99
28306;BME280;7516;43.570;1.448;2023-09-19T10:34:22;100017.84;;;22.01;87.57
28306;BME280;7516;43.570;1.448;2023-09-19T10:36:53;100014.13;;;22.02;84.55
28306;BME280;7516;43.570;1.448;2023-09-19T10:39:21;100015.28;;;22.06;80.53
28306;BME280;7516;43.570;1.448;2023-09-19T10:41:54;100010.59;;;22.13;79.53
28306;BME280;7516;43.570;1.448;2023-09-19T10:44:25;100009.38;;;22.21;81.94
28306;BME280;7516;43.570;1.448;2023-09-19T10:46:54;100001.19;;;22.10;82.58
28306;BME280;7516;43.570;1.448;2023-09-19T10:49:23;100000.28;;;22.05;81.40
28306;BME280;7516;43.570;1.448;2023-09-19T10:51:54;99999.97;;;22.01;81.23
28306;BME280;7516;43.570;1.448;2023-09-19T10:54:26;99987.69;;;21.89;80.68
28306;BME280;7516;43.570;1.448;2023-09-19T10:56:56;99998.25;;;21.84;79.78
28306;BME280;7516;43.570;1.448;2023-09-19T10:59:25;99990.75;;;21.81;80.35
28306;BME280;7516;43.570;1.448;2023-09-19T11:02:16;99988.91;;;21.81;81.68
28306;BME280;7516;43.570;1.448;2023-09-19T11:04:44;99992.47;;;21.87;81.99
28306;BME280;7516;43.570;1.448;2023-09-19T11:07:15;99985.56;;;21.91;82.54
28306;BME280;7516;43.570;1.448;2023-09-19T11:09:50;99977.78;;;22.01;80.84
28306;BME280;7516;43.570;1.448;2023-09-19T11:12:51;99969.88;;;22.06;78.38
28306;BME280;7516;43.570;1.448;2023-09-19T11:18:51;99971.53;;;22.24;77.46
28306;BME280;7516;43.570;1.448;2023-09-19T11:21:51;99953.00;;;22.34;74.77
28306;BME280;7516;43.570;1.448;2023-09-19T11:24:31;99958.97;;;22.41;73.87
28306;BME280;7516;43.570;1.448;2023-09-19T11:27:13;99949.91;;;22.42;71.34
28306;BME280;7516;43.570;1.448;2023-09-19T11:29:45;99950.22;;;22.45;70.64
28306;BME280;7516;43.570;1.448;2023-09-19T11:32:13;99944.88;;;22.45;65.49
28306;BME280;7516;43.570;1.448;2023-09-19T11:34:47;99943.94;;;22.51;67.32
28306;BME280;7516;43.570;1.448;2023-09-19T11:40:36;99939.84;;;22.66;64.53
28306;BME280;7516;43.570;1.448;2023-09-19T11:43:29;99929.91;;;22.78;66.05
28306;BME280;7516;43.570;1.448;2023-09-19T11:46:11;99932.59;;;22.78;61.54
28306;BME280;7516;43.570;1.448;2023-09-19T11:48:42;99932.06;;;22.81;63.59
28306;BME280;7516;43.570;1.448;2023-09-19T11:51:20;99939.53;;;22.79;64.71
28306;BME280;7516;43.570;1.448;2023-09-19T11:53:53;99941.53;;;22.72;64.51
28306;BME280;7516;43.570;1.448;2023-09-19T11:56:22;99937.75;;;22.68;63.43
28306;BME280;7516;43.570;1.448;2023-09-19T11:58:52;99929.72;;;22.68;57.89
28306;BME280;7516;43.570;1.448;2023-09-19T12:01:29;99924.28;;;22.79;61.39
28306;BME280;7516;43.570;1.448;2023-09-19T12:03:59;99924.13;;;22.86;61.87
28306;BME280;7516;43.570;1.448;2023-09-19T12:06:29;99922.56;;;22.90;58.75
28306;BME280;7516;43.570;1.448;2023-09-19T12:08:58;99920.28;;;22.99;61.33
28306;BME280;7516;43.570;1.448;2023-09-19T12:11:30;99908.03;;;23.03;63.07
28306;BME280;7516;43.570;1.448;2023-09-19T12:14:00;99907.28;;;23.07;61.15
28306;BME280;7516;43.570;1.448;2023-09-19T12:16:30;99908.94;;;23.13;61.67
28306;BME280;7516;43.570;1.448;2023-09-19T12:19:18;99908.47;;;23.16;62.85
28306;BME280;7516;43.570;1.448;2023-09-19T12:21:55;99900.50;;;23.21;62.60
28306;BME280;7516;43.570;1.448;2023-09-19T12:24:24;99905.59;;;23.23;56.56
28306;BME280;7516;43.570;1.448;2023-09-19T12:27:01;99900.81;;;23.25;58.03
28306;BME280;7516;43.570;1.448;2023-09-19T12:29:31;99896.75;;;23.22;59.25
28306;BME280;7516;43.570;1.448;2023-09-19T12:32:01;99887.38;;;23.20;60.78
28306;BME280;7516;43.570;1.448;2023-09-19T12:34:32;99894.34;;;23.21;63.58
28306;BME280;7516;43.570;1.448;2023-09-19T12:37:08;99888.50;;;23.24;57.42
28306;BME280;7516;43.570;1.448;2023-09-19T12:39:43;99891.00;;;23.31;60.80
28306;BME280;7516;43.570;1.448;2023-09-19T12:42:15;99886.63;;;23.24;56.85
28306;BME280;7516;43.570;1.448;2023-09-19T12:44:44;99888.81;;;23.27;57.94
28306;BME280;7516;43.570;1.448;2023-09-19T12:47:15;99881.59;;;23.28;56.42
28306;BME280;7516;43.570;1.448;2023-09-19T12:50:05;99874.94;;;23.31;60.01
28306;BME280;7516;43.570;1.448;2023-09-19T12:52:36;99866.38;;;23.34;55.25
28306;BME280;7516;43.570;1.448;2023-09-19T12:55:05;99862.16;;;23.38;58.74
28306;BME280;7516;43.570;1.448;2023-09-19T12:57:34;99860.34;;;23.43;58.88
28306;BME280;7516;43.570;1.448;2023-09-19T13:00:02;99853.38;;;23.42;59.80
28306;BME280;7516;43.570;1.448;2023-09-19T13:02:33;99843.78;;;23.46;58.50
28306;BME280;7516;43.570;1.448;2023-09-19T13:05:00;99853.75;;;23.51;57.31
28306;BME280;7516;43.570;1.448;2023-09-19T13:07:43;99838.75;;;23.50;59.02
28306;BME280;7516;43.570;1.448;2023-09-19T13:10:13;99837.44;;;23.52;61.35
28306;BME280;7516;43.570;1.448;2023-09-19T13:12:43;99833.25;;;23.61;58.71
28306;BME280;7516;43.570;1.448;2023-09-19T13:15:14;99826.34;;;23.66;56.22
28306;BME280;7516;43.570;1.448;2023-09-19T13:17:47;99826.06;;;23.67;54.90
28306;BME280;7516;43.570;1.448;2023-09-19T13:20:22;99826.41;;;23.76;57.76
28306;BME280;7516;43.570;1.448;2023-09-19T13:22:54;99817.31;;;23.77;54.08
28306;BME280;7516;43.570;1.448;2023-09-19T13:25:26;99812.25;;;23.80;53.51